createdAt,value
2023-05-22T00:01:49.454Z,19.20
2023-05-22T00:04:22.058Z,19.20
2023-05-22T00:06:50.860Z,19.10
2023-05-22T00:09:19.160Z,19.10
2023-05-22T00:11:47.496Z,19.10
2023-05-22T00:14:15.938Z,19.10
2023-05-22T00:16:44.368Z,19.00
2023-05-22T00:19:17.306Z,19.00
2023-05-22T00:21:47.034Z,19.00
2023-05-22T00:24:15.532Z,19.00
2023-05-22T00:26:43.973Z,19.00
2023-05-22T00:29:12.335Z,19.00
2023-05-22T00:31:40.672Z,19.00
2023-05-22T00:34:09.023Z,18.90
2023-05-22T00:36:38.835Z,18.90
2023-05-22T00:39:07.226Z,18.90
2023-05-22T00:41:35.596Z,18.90
2023-05-22T00:44:04.025Z,18.90
2023-05-22T00:46:33.409Z,18.80
2023-05-22T00:49:01.687Z,18.80
2023-05-22T00:51:30.642Z,18.80
2023-05-22T00:54:00.353Z,18.80
2023-05-22T00:56:29.313Z,18.70
2023-05-22T00:58:58.186Z,18.70
2023-05-22T01:01:33.707Z,18.60
2023-05-22T01:04:04.051Z,18.70
2023-05-22T01:06:33.106Z,18.60
2023-05-22T01:09:04.743Z,18.60
2023-05-22T01:11:39.183Z,18.50
2023-05-22T01:14:15.943Z,18.50
2023-05-22T01:16:54.698Z,18.50
2023-05-22T01:20:02.160Z,18.40
2023-05-22T01:22:58.763Z,18.40
2023-05-22T01:25:59.650Z,18.40
2023-05-22T01:29:08.040Z,18.30
2023-05-22T01:31:42.510Z,18.30
2023-05-22T01:34:13.247Z,18.20
2023-05-22T01:36:43.495Z,18.10
2023-05-22T01:39:13.049Z,18.00
2023-05-22T01:41:42.819Z,18.00
2023-05-22T01:44:11.507Z,18.00
2023-05-22T01:46:41.486Z,17.90
2023-05-22T01:49:10.581Z,17.90
2023-05-22T01:51:50.204Z,17.80
2023-05-22T01:54:24.346Z,17.80
2023-05-22T01:56:57.160Z,17.80
2023-05-22T01:59:32.126Z,17.70
2023-05-22T02:02:07.017Z,17.70
2023-05-22T02:04:39.730Z,17.70
2023-05-22T02:07:12.062Z,17.70
2023-05-22T02:09:42.115Z,17.60
2023-05-22T02:12:11.294Z,17.60
2023-05-22T02:14:39.931Z,17.60
2023-05-22T02:17:09.657Z,17.60
2023-05-22T02:19:38.149Z,17.50
2023-05-22T02:22:09.960Z,17.40
2023-05-22T02:24:38.291Z,17.40
2023-05-22T02:27:06.885Z,17.40
2023-05-22T02:29:35.232Z,17.30
2023-05-22T02:32:04.158Z,17.30
2023-05-22T02:34:33.895Z,17.30
2023-05-22T02:37:05.056Z,17.30
2023-05-22T02:39:33.446Z,17.30
2023-05-22T02:42:02.137Z,17.30
2023-05-22T02:44:30.560Z,17.30
2023-05-22T02:46:59.018Z,17.30
2023-05-22T02:49:27.331Z,17.20
2023-05-22T02:51:58.309Z,17.20
2023-05-22T02:54:26.657Z,17.20
2023-05-22T02:56:54.950Z,17.20
2023-05-22T02:59:23.375Z,17.20
2023-05-22T03:01:54.504Z,17.10
2023-05-22T03:04:22.994Z,17.10
2023-05-22T03:06:51.383Z,17.10
2023-05-22T03:09:21.602Z,17.10
2023-05-22T03:11:50.312Z,17.10
2023-05-22T03:14:20.130Z,17.00
2023-05-22T03:16:48.508Z,17.00
2023-05-22T03:19:18.259Z,17.00
2023-05-22T03:21:48.573Z,16.90
2023-05-22T03:24:17.263Z,17.00
2023-05-22T03:26:47.316Z,17.00
2023-05-22T03:29:16.125Z,17.00
2023-05-22T03:31:44.774Z,16.90
2023-05-22T03:34:13.232Z,16.90
2023-05-22T03:36:42.724Z,16.90
2023-05-22T03:39:11.210Z,16.90
2023-05-22T03:41:39.639Z,17.00
2023-05-22T03:44:09.442Z,17.00
2023-05-22T03:46:37.821Z,17.00
2023-05-22T03:49:06.312Z,17.10
2023-05-22T03:51:34.941Z,17.10
2023-05-22T03:54:03.391Z,17.10
2023-05-22T03:56:31.756Z,17.20
2023-05-22T03:59:00.286Z,17.20
2023-05-22T04:01:31.587Z,17.30
2023-05-22T04:03:59.706Z,17.30
2023-05-22T04:06:27.875Z,17.30
2023-05-22T04:08:56.090Z,17.30
2023-05-22T04:11:24.213Z,17.40
2023-05-22T04:13:52.322Z,17.40
2023-05-22T04:16:21.002Z,17.40
2023-05-22T04:18:50.495Z,17.50
2023-05-22T04:21:19.107Z,17.60
2023-05-22T04:23:47.678Z,17.60
2023-05-22T04:26:15.949Z,17.80
2023-05-22T04:28:46.081Z,17.90
2023-05-22T04:31:14.719Z,17.90
2023-05-22T04:33:42.888Z,18.00
2023-05-22T04:36:13.025Z,18.00
2023-05-22T04:38:41.345Z,18.20
2023-05-22T04:41:10.303Z,18.30
2023-05-22T04:43:38.743Z,18.40
2023-05-22T04:46:08.340Z,18.40
2023-05-22T04:48:36.872Z,18.50
2023-05-22T04:51:06.323Z,18.60
2023-05-22T04:53:36.052Z,18.70
2023-05-22T04:56:04.256Z,18.80
2023-05-22T04:58:32.469Z,18.80
2023-05-22T05:01:00.837Z,18.80
2023-05-22T05:03:29.898Z,18.80
2023-05-22T05:05:59.516Z,19.00
2023-05-22T05:08:27.729Z,19.10
2023-05-22T05:10:57.248Z,19.60
2023-05-22T05:13:25.438Z,20.40
2023-05-22T05:15:53.561Z,21.00
2023-05-22T05:18:21.827Z,21.10
2023-05-22T05:20:50.232Z,20.90
2023-05-22T05:23:18.378Z,20.80
2023-05-22T05:25:46.653Z,20.50
2023-05-22T05:28:16.665Z,20.30
2023-05-22T05:30:44.882Z,20.60
2023-05-22T05:33:13.087Z,20.90
2023-05-22T05:35:43.005Z,20.90
2023-05-22T05:38:11.354Z,21.00
2023-05-22T05:40:39.799Z,21.30
2023-05-22T05:43:09.351Z,21.70
2023-05-22T05:45:39.225Z,22.00
2023-05-22T05:48:08.210Z,21.90
2023-05-22T05:50:36.943Z,21.90
2023-05-22T05:53:05.161Z,21.00
2023-05-22T05:55:34.581Z,22.80
2023-05-22T05:58:02.912Z,23.20
2023-05-22T06:00:31.352Z,23.50
2023-05-22T06:03:01.234Z,23.80
2023-05-22T06:05:30.136Z,25.00
2023-05-22T06:07:58.921Z,25.40
2023-05-22T06:10:27.079Z,26.50
2023-05-22T06:12:55.734Z,27.00
2023-05-22T06:15:23.965Z,26.70
2023-05-22T06:17:52.204Z,26.00
2023-05-22T06:20:22.228Z,25.70
2023-05-22T06:22:50.660Z,25.70
2023-05-22T06:25:19.053Z,25.80
2023-05-22T06:27:47.424Z,26.00
2023-05-22T06:30:20.327Z,26.30
2023-05-22T06:32:56.727Z,26.50
2023-05-22T06:35:26.464Z,26.90
2023-05-22T06:37:54.761Z,27.00
2023-05-22T06:40:23.162Z,26.00
2023-05-22T06:42:51.607Z,25.20
2023-05-22T06:45:20.053Z,24.90
2023-05-22T06:47:48.388Z,24.90
2023-05-22T06:50:17.087Z,24.30
2023-05-22T06:52:46.725Z,23.90
2023-05-22T06:55:14.923Z,24.40
2023-05-22T06:57:43.097Z,24.90
2023-05-22T07:00:12.851Z,25.40
2023-05-22T07:02:41.193Z,26.30
2023-05-22T07:05:09.726Z,25.50
2023-05-22T07:07:38.021Z,25.70
2023-05-22T07:10:08.924Z,26.00
2023-05-22T07:12:37.371Z,25.90
2023-05-22T07:15:06.086Z,25.90
2023-05-22T07:17:34.922Z,26.10
2023-05-22T07:20:03.655Z,25.80
2023-05-22T07:22:31.948Z,25.80
2023-05-22T07:25:00.292Z,26.10
2023-05-22T07:27:30.137Z,27.10
2023-05-22T07:29:58.467Z,28.10
2023-05-22T07:32:26.792Z,29.00
2023-05-22T07:34:55.090Z,29.00
2023-05-22T07:37:23.419Z,28.20
2023-05-22T07:39:51.740Z,27.90
2023-05-22T07:42:20.184Z,27.80
2023-05-22T07:44:50.347Z,27.30
2023-05-22T07:47:18.794Z,27.20
2023-05-22T07:49:46.913Z,27.00
2023-05-22T07:52:15.121Z,27.10
2023-05-22T07:54:45.197Z,27.20
2023-05-22T07:57:15.709Z,27.80
2023-05-22T07:59:44.140Z,28.50
2023-05-22T08:02:14.304Z,28.60
2023-05-22T08:04:42.710Z,29.10
2023-05-22T08:07:11.084Z,29.50
2023-05-22T08:09:39.809Z,29.40
2023-05-22T08:12:09.064Z,30.20
2023-05-22T08:14:38.049Z,30.90
2023-05-22T08:17:06.599Z,30.80
2023-05-22T08:19:36.737Z,29.80
2023-05-22T08:22:05.235Z,29.30
2023-05-22T08:24:33.726Z,29.70
2023-05-22T08:27:02.170Z,29.10
2023-05-22T08:29:30.770Z,28.20
2023-05-22T08:31:59.135Z,28.50
2023-05-22T08:34:28.421Z,28.50
2023-05-22T08:36:59.149Z,28.40
2023-05-22T08:39:27.332Z,28.50
2023-05-22T08:41:56.046Z,28.30
2023-05-22T08:44:25.286Z,27.90
2023-05-22T08:46:53.761Z,27.60
2023-05-22T08:49:24.035Z,27.00
2023-05-22T08:51:58.216Z,26.80
2023-05-22T08:54:29.807Z,26.50
2023-05-22T08:56:58.776Z,26.30
2023-05-22T08:59:27.086Z,26.00
2023-05-22T09:01:55.858Z,25.50
2023-05-22T09:04:25.560Z,25.40
2023-05-22T09:06:55.175Z,25.40
2023-05-22T09:09:24.781Z,25.60
2023-05-22T09:11:55.201Z,25.70
2023-05-22T09:14:23.352Z,25.60
2023-05-22T09:16:56.609Z,25.70
2023-05-22T09:19:24.930Z,25.60
2023-05-22T09:21:53.158Z,25.60
2023-05-22T09:24:21.467Z,25.70
2023-05-22T09:26:52.559Z,25.60
2023-05-22T09:29:20.818Z,25.60
2023-05-22T09:31:49.738Z,25.60
2023-05-22T09:34:18.278Z,26.00
2023-05-22T09:36:46.711Z,26.10
2023-05-22T09:39:15.567Z,26.20
2023-05-22T09:41:45.865Z,26.10
2023-05-22T09:44:16.789Z,26.00
2023-05-22T09:46:47.991Z,26.10
2023-05-22T09:49:17.266Z,26.40
2023-05-22T09:51:48.881Z,26.50
2023-05-22T09:54:18.454Z,26.70
2023-05-22T09:56:50.273Z,26.60
2023-05-22T09:59:23.608Z,26.20
2023-05-22T10:01:52.750Z,26.30
2023-05-22T10:04:24.215Z,26.40
2023-05-22T10:06:54.907Z,26.30
2023-05-22T10:09:30.672Z,26.30
2023-05-22T10:12:04.123Z,26.30
2023-05-22T10:14:35.789Z,26.20
2023-05-22T10:17:07.098Z,26.10
2023-05-22T10:19:39.760Z,26.30
2023-05-22T10:22:10.294Z,26.40
2023-05-22T10:24:39.293Z,26.40
2023-05-22T10:27:07.696Z,26.40
2023-05-22T10:29:44.330Z,26.60
2023-05-22T10:32:19.786Z,26.70
2023-05-22T10:34:55.511Z,26.70
2023-05-22T10:37:43.245Z,26.70
2023-05-22T10:40:14.271Z,26.60
2023-05-22T10:42:43.104Z,26.20
2023-05-22T10:45:13.086Z,26.20
2023-05-22T10:47:41.542Z,26.20
2023-05-22T10:50:11.361Z,26.30
2023-05-22T10:52:40.817Z,26.40
2023-05-22T10:55:10.322Z,26.50
2023-05-22T10:57:39.643Z,26.50
2023-05-22T11:00:09.749Z,26.70
2023-05-22T11:02:43.954Z,26.50
2023-05-22T11:05:37.628Z,26.60
2023-05-22T11:08:37.572Z,26.50
2023-05-22T11:11:15.105Z,26.40
2023-05-22T11:13:43.918Z,26.30
2023-05-22T11:16:12.523Z,26.30
2023-05-22T11:18:43.240Z,26.40
2023-05-22T11:21:13.960Z,26.60
2023-05-22T11:23:42.928Z,26.60
2023-05-22T11:26:25.546Z,26.50
2023-05-22T11:28:56.916Z,26.40
2023-05-22T11:31:26.679Z,26.20
2023-05-22T11:33:56.782Z,26.10
2023-05-22T11:36:26.231Z,25.90
2023-05-22T11:38:59.933Z,25.90
2023-05-22T11:41:33.668Z,26.30
2023-05-22T11:44:03.950Z,26.00
2023-05-22T11:46:32.320Z,25.90
2023-05-22T11:49:02.417Z,25.90
2023-05-22T11:51:31.156Z,25.90
2023-05-22T11:53:59.583Z,25.80
2023-05-22T11:56:27.879Z,25.80
2023-05-22T11:58:56.299Z,25.90
2023-05-22T12:01:24.564Z,25.90
2023-05-22T12:03:52.998Z,26.20
2023-05-22T12:06:22.920Z,26.50
2023-05-22T12:08:51.451Z,26.60
2023-05-22T12:11:19.774Z,26.60
2023-05-22T12:13:52.246Z,26.50
2023-05-22T12:16:23.224Z,26.70
2023-05-22T12:18:54.710Z,26.70
2023-05-22T12:21:24.512Z,26.60
2023-05-22T12:23:53.337Z,26.50
2023-05-22T12:26:22.058Z,26.40
2023-05-22T12:28:54.557Z,26.00
2023-05-22T12:31:23.393Z,25.80
2023-05-22T12:33:55.418Z,25.70
2023-05-22T12:36:35.201Z,25.70
2023-05-22T12:39:03.815Z,25.80
2023-05-22T12:41:32.384Z,25.80
2023-05-22T12:44:02.523Z,25.80
2023-05-22T12:46:32.263Z,25.80
2023-05-22T12:49:01.801Z,25.80
2023-05-22T12:51:33.482Z,25.90
2023-05-22T12:54:03.090Z,26.00
2023-05-22T12:56:32.788Z,26.00
2023-05-22T12:59:01.413Z,25.90
2023-05-22T13:01:29.728Z,25.90
2023-05-22T13:03:57.994Z,25.90
2023-05-22T13:06:27.984Z,26.10
2023-05-22T13:08:59.680Z,26.30
2023-05-22T13:11:27.982Z,26.50
2023-05-22T13:13:56.202Z,26.20
2023-05-22T13:16:24.582Z,26.30
2023-05-22T13:18:53.026Z,26.50
2023-05-22T13:21:21.465Z,26.60
2023-05-22T13:23:50.149Z,26.60
2023-05-22T13:26:19.895Z,26.40
2023-05-22T13:28:48.365Z,26.30
2023-05-22T13:31:16.887Z,26.80
2023-05-22T13:33:46.077Z,26.30
2023-05-22T13:36:14.685Z,26.30
2023-05-22T13:38:43.076Z,26.40
2023-05-22T13:41:11.416Z,26.50
2023-05-22T13:43:41.133Z,26.50
2023-05-22T13:46:09.431Z,26.40
2023-05-22T13:48:37.600Z,26.40
2023-05-22T13:51:06.417Z,26.50
2023-05-22T13:53:35.425Z,27.40
2023-05-22T13:56:03.734Z,26.90
2023-05-22T13:58:31.889Z,27.00
2023-05-22T14:01:01.612Z,27.20
2023-05-22T14:03:29.902Z,27.00
2023-05-22T14:05:58.060Z,26.90
2023-05-22T14:08:26.299Z,26.80
2023-05-22T14:10:54.534Z,26.00
2023-05-22T14:13:22.909Z,26.80
2023-05-22T14:15:51.248Z,26.80
2023-05-22T14:18:21.065Z,26.80
2023-05-22T14:20:49.636Z,26.70
2023-05-22T14:23:17.941Z,26.60
2023-05-22T14:25:46.275Z,26.60
2023-05-22T14:28:15.129Z,26.70
2023-05-22T14:30:43.974Z,26.80
2023-05-22T14:33:12.494Z,26.90
2023-05-22T14:35:42.416Z,27.00
2023-05-22T14:38:10.781Z,27.00
2023-05-22T14:40:39.293Z,27.10
2023-05-22T14:43:07.482Z,27.10
2023-05-22T14:45:35.817Z,27.10
2023-05-22T14:48:04.877Z,26.90
2023-05-22T14:50:33.192Z,27.00
2023-05-22T14:53:02.788Z,27.00
2023-05-22T14:55:31.799Z,26.80
2023-05-22T14:57:59.991Z,26.90
2023-05-22T15:00:28.254Z,27.10
2023-05-22T15:02:56.417Z,27.10
2023-05-22T15:05:26.765Z,27.10
2023-05-22T15:07:58.512Z,27.10
2023-05-22T15:10:28.223Z,27.00
2023-05-22T15:12:56.572Z,26.80
2023-05-22T15:15:25.076Z,26.60
2023-05-22T15:17:53.494Z,26.50
2023-05-22T15:20:22.225Z,26.50
2023-05-22T15:22:50.766Z,26.40
2023-05-22T15:25:22.152Z,26.30
2023-05-22T15:27:52.004Z,26.20
2023-05-22T15:30:22.195Z,26.20
2023-05-22T15:32:50.572Z,26.30
2023-05-22T15:35:18.966Z,26.40
2023-05-22T15:37:47.264Z,25.40
2023-05-22T15:40:18.437Z,26.30
2023-05-22T15:42:46.787Z,26.20
2023-05-22T15:45:16.329Z,26.20
2023-05-22T15:47:44.548Z,26.20
2023-05-22T15:50:12.733Z,26.10
2023-05-22T15:52:41.051Z,26.10
2023-05-22T15:55:09.748Z,26.00
2023-05-22T15:57:38.167Z,25.90
2023-05-22T16:00:08.178Z,25.70
2023-05-22T16:02:37.928Z,25.60
2023-05-22T16:05:06.711Z,25.60
2023-05-22T16:07:34.882Z,25.60
2023-05-22T16:10:04.445Z,25.60
2023-05-22T16:12:32.945Z,25.70
2023-05-22T16:15:02.737Z,25.80
2023-05-22T16:17:32.507Z,25.90
2023-05-22T16:20:04.640Z,26.00
2023-05-22T16:22:47.256Z,26.10
2023-05-22T16:25:17.777Z,26.10
2023-05-22T16:27:46.325Z,26.10
2023-05-22T16:30:17.432Z,26.00
2023-05-22T16:32:47.336Z,25.80
2023-05-22T16:35:19.545Z,25.70
2023-05-22T16:37:47.802Z,25.70
2023-05-22T16:40:16.239Z,25.70
2023-05-22T16:42:44.420Z,25.60
2023-05-22T16:45:12.847Z,25.60
2023-05-22T16:47:41.623Z,25.50
2023-05-22T16:50:10.228Z,25.40
2023-05-22T16:52:39.836Z,25.40
2023-05-22T16:55:09.467Z,25.30
2023-05-22T16:57:37.713Z,25.30
2023-05-22T17:00:10.937Z,25.30
2023-05-22T17:02:39.466Z,25.20
2023-05-22T17:05:08.696Z,25.20
2023-05-22T17:07:36.998Z,25.20
2023-05-22T17:10:07.481Z,25.20
2023-05-22T17:12:35.763Z,25.30
2023-05-22T17:15:04.059Z,25.20
2023-05-22T17:17:32.192Z,25.20
2023-05-22T17:20:01.630Z,25.20
2023-05-22T17:22:29.874Z,25.20
2023-05-22T17:24:58.016Z,25.10
2023-05-22T17:27:35.555Z,25.10
2023-05-22T17:30:06.093Z,24.90
2023-05-22T17:32:34.865Z,25.70
2023-05-22T17:35:04.976Z,24.80
2023-05-22T17:37:33.280Z,24.60
2023-05-22T17:40:01.537Z,24.70
2023-05-22T17:42:31.048Z,24.60
2023-05-22T17:44:59.250Z,24.60
2023-05-22T17:47:27.416Z,24.50
2023-05-22T17:49:55.798Z,24.40
2023-05-22T17:52:23.947Z,24.30
2023-05-22T17:54:52.092Z,24.30
2023-05-22T17:57:20.289Z,24.20
2023-05-22T17:59:50.100Z,24.10
2023-05-22T18:02:18.855Z,24.00
2023-05-22T18:04:48.545Z,23.90
2023-05-22T18:07:17.519Z,23.90
2023-05-22T18:09:45.724Z,23.80
2023-05-22T18:12:30.139Z,23.70
2023-05-22T18:15:00.587Z,23.60
2023-05-22T18:17:28.809Z,23.60
2023-05-22T18:19:57.037Z,23.50
2023-05-22T18:22:25.605Z,23.50
2023-05-22T18:24:53.847Z,23.40
2023-05-22T18:27:21.981Z,23.30
2023-05-22T18:29:50.500Z,23.20
2023-05-22T18:32:20.053Z,23.10
2023-05-22T18:34:48.670Z,23.10
2023-05-22T18:37:18.951Z,23.00
2023-05-22T18:39:47.231Z,22.90
2023-05-22T18:42:15.826Z,22.80
2023-05-22T18:44:43.909Z,22.70
2023-05-22T18:47:12.376Z,22.60
2023-05-22T18:49:42.019Z,22.60
2023-05-22T18:52:10.197Z,22.50
2023-05-22T18:54:38.401Z,22.40
2023-05-22T18:57:06.949Z,22.30
2023-05-22T18:59:35.186Z,22.20
2023-05-22T19:02:03.351Z,22.20
2023-05-22T19:04:31.640Z,22.10
2023-05-22T19:07:01.215Z,22.00
2023-05-22T19:09:29.347Z,21.90
2023-05-22T19:11:57.572Z,21.90
2023-05-22T19:14:25.860Z,21.80
2023-05-22T19:16:54.132Z,21.80
2023-05-22T19:19:22.587Z,21.70
2023-05-22T19:21:51.144Z,21.70
2023-05-22T19:24:20.774Z,21.60
2023-05-22T19:26:49.061Z,21.60
2023-05-22T19:29:17.454Z,21.60
2023-05-22T19:31:45.711Z,21.50
2023-05-22T19:34:13.884Z,21.50
2023-05-22T19:36:42.072Z,21.40
2023-05-22T19:39:10.425Z,21.40
2023-05-22T19:41:40.034Z,21.30
2023-05-22T19:44:08.822Z,21.40
2023-05-22T19:46:37.493Z,21.40
2023-05-22T19:49:05.961Z,21.30
2023-05-22T19:51:34.534Z,21.20
2023-05-22T19:54:03.135Z,21.20
2023-05-22T19:56:31.666Z,21.10
2023-05-22T19:59:01.814Z,21.00
2023-05-22T20:01:30.261Z,21.00
2023-05-22T20:03:58.917Z,20.90
2023-05-22T20:06:31.528Z,20.80
2023-05-22T20:09:01.946Z,20.70
2023-05-22T20:11:31.068Z,20.70
2023-05-22T20:14:02.607Z,20.60
2023-05-22T20:16:31.950Z,20.60
2023-05-22T20:19:02.701Z,20.60
2023-05-22T20:21:32.273Z,20.50
2023-05-22T20:24:00.921Z,20.40
2023-05-22T20:26:29.620Z,20.40
2023-05-22T20:28:58.350Z,20.30
2023-05-22T20:31:28.292Z,20.20
2023-05-22T20:33:59.264Z,20.20
2023-05-22T20:36:28.351Z,20.20
2023-05-22T20:38:58.500Z,20.10
2023-05-22T20:41:27.422Z,20.10
2023-05-22T20:43:56.214Z,20.00
2023-05-22T20:46:25.240Z,20.00
2023-05-22T20:48:55.231Z,20.10
2023-05-22T20:51:32.607Z,19.80
2023-05-22T20:54:04.069Z,19.70
2023-05-22T20:56:35.849Z,19.70
2023-05-22T20:59:04.305Z,19.60
2023-05-22T21:01:33.078Z,19.60
2023-05-22T21:04:03.090Z,19.60
2023-05-22T21:06:31.776Z,19.60
2023-05-22T21:09:01.779Z,19.60
2023-05-22T21:11:30.292Z,20.30
2023-05-22T21:13:59.095Z,19.50
2023-05-22T21:16:27.683Z,19.50
2023-05-22T21:18:56.367Z,19.40
2023-05-22T21:21:26.353Z,19.50
2023-05-22T21:23:54.898Z,19.50
2023-05-22T21:26:23.529Z,19.50
2023-05-22T21:28:52.234Z,19.40
2023-05-22T21:31:20.893Z,19.40
2023-05-22T21:33:49.391Z,19.40
2023-05-22T21:36:17.974Z,19.40
2023-05-22T21:38:47.978Z,19.40
2023-05-22T21:41:16.906Z,19.40
2023-05-22T21:43:45.856Z,19.30
2023-05-22T21:46:16.949Z,19.30
2023-05-22T21:48:45.330Z,19.30
2023-05-22T21:51:13.631Z,19.20
2023-05-22T21:53:41.993Z,19.20
2023-05-22T21:56:11.763Z,19.10
2023-05-22T21:58:40.134Z,19.10
2023-05-22T22:01:08.385Z,19.10
2023-05-22T22:03:38.737Z,19.00
2023-05-22T22:06:07.603Z,19.10
2023-05-22T22:08:36.095Z,19.00
2023-05-22T22:11:04.573Z,19.00
2023-05-22T22:13:34.321Z,19.00
2023-05-22T22:16:02.956Z,19.00
2023-05-22T22:18:33.638Z,19.00
2023-05-22T22:21:02.503Z,19.00
2023-05-22T22:23:34.627Z,19.00
2023-05-22T22:26:05.359Z,19.00
2023-05-22T22:28:35.639Z,19.00
2023-05-22T22:31:04.241Z,18.90
2023-05-22T22:33:32.901Z,19.00
2023-05-22T22:36:02.032Z,18.90
2023-05-22T22:38:33.012Z,18.90
2023-05-22T22:41:02.246Z,18.90
2023-05-22T22:43:30.677Z,18.90
2023-05-22T22:46:00.842Z,18.80
2023-05-22T22:48:29.334Z,18.80
2023-05-22T22:50:58.252Z,18.80
2023-05-22T22:53:26.728Z,18.80
2023-05-22T22:55:57.281Z,18.80
2023-05-22T22:58:25.929Z,18.80
2023-05-22T23:00:54.873Z,18.80
2023-05-22T23:03:24.904Z,18.80
2023-05-22T23:05:53.503Z,18.80
2023-05-22T23:08:22.085Z,18.70
2023-05-22T23:10:51.112Z,18.70
2023-05-22T23:13:19.715Z,18.70
2023-05-22T23:15:48.080Z,18.60
2023-05-22T23:18:17.045Z,18.30
2023-05-22T23:20:47.147Z,18.60
2023-05-22T23:23:15.483Z,18.50
2023-05-22T23:25:43.766Z,18.50
2023-05-22T23:28:12.214Z,18.40
2023-05-22T23:30:40.403Z,18.40
2023-05-22T23:33:08.905Z,18.30
2023-05-22T23:35:37.848Z,18.30
2023-05-22T23:38:08.083Z,18.20
2023-05-22T23:40:36.512Z,18.10
2023-05-22T23:43:05.059Z,18.10
2023-05-22T23:45:33.394Z,18.10
2023-05-22T23:48:01.932Z,18.00
2023-05-22T23:50:30.369Z,18.00
2023-05-22T23:52:58.756Z,18.00
2023-05-22T23:55:28.476Z,18.00
2023-05-22T23:57:56.664Z,18.00
